Time;durP1;ratioP1;P1;durP2;ratioP2;P2;SDS_P1;SDS_P2;PMS_P1;PMS_P2;Temp;Humidity;BMP_temperature;BMP_pressure;BME280_temperature;BME280_humidity;BME280_pressure;Samples;Min_cycle;Max_cycle;Signal;HPM_P1;HPM_P2
2022/01/31 00:01:34;;;;;;;;;12.33;9.00;;;;;21.21;50.97;99962.93;111283;1258;21881;-68
2022/01/31 00:04:01;;;;;;;;;14.67;13.00;;;;;21.21;50.98;99958.39;111307;1258;22106;-65
2022/01/31 00:06:28;;;;;;;;;11.33;10.00;;;;;21.21;51.02;99956.42;111220;1258;19508;-68
2022/01/31 00:08:55;;;;;;;;;13.00;12.00;;;;;21.20;50.87;99965.77;111256;1258;19193;-68
2022/01/31 00:11:23;;;;;;;;;11.00;11.00;;;;;21.21;51.06;99969.00;111267;1258;19464;-69
2022/01/31 00:13:59;;;;;;;;;16.00;12.67;;;;;21.21;50.94;99972.77;111291;1258;19580;-68
2022/01/31 00:16:32;;;;;;;;;9.67;9.67;;;;;21.21;51.08;99974.20;111271;1258;18761;-69
2022/01/31 00:18:59;;;;;;;;;12.00;10.67;;;;;21.21;50.84;99981.34;111317;1258;19429;-67
2022/01/31 00:21:26;;;;;;;;;13.33;10.67;;;;;21.21;50.79;99986.48;111261;1258;19694;-68
2022/01/31 00:23:53;;;;;;;;;11.33;10.00;;;;;21.20;50.94;99991.35;111161;1258;22935;-69
2022/01/31 00:26:21;;;;;;;;;11.33;8.67;;;;;21.20;50.81;99995.92;111320;1259;19032;-68
2022/01/31 00:28:48;;;;;;;;;12.00;10.67;;;;;21.20;50.72;99991.39;111212;1258;21447;-66
2022/01/31 00:31:15;;;;;;;;;10.67;9.67;;;;;21.17;50.64;99986.17;111233;1258;19314;-69
2022/01/31 00:33:42;;;;;;;;;12.00;8.67;;;;;21.18;50.77;99985.84;111271;1258;19684;-70
2022/01/31 00:36:09;;;;;;;;;11.00;9.00;;;;;21.19;50.82;99992.77;111263;1258;22012;-68
2022/01/31 00:38:37;;;;;;;;;12.00;10.00;;;;;21.20;50.85;100000.52;111315;1258;18784;-69
2022/01/31 00:41:04;;;;;;;;;11.33;10.67;;;;;21.19;50.72;99996.77;111294;1258;19625;-68
2022/01/31 00:43:34;;;;;;;;;11.33;10.00;;;;;21.19;50.65;99997.56;111294;1258;19676;-67
2022/01/31 00:46:08;;;;;;;;;12.33;10.67;;;;;21.17;50.92;100000.50;111252;1258;24783;-68
2022/01/31 00:48:41;;;;;;;;;9.00;8.67;;;;;21.19;50.58;100011.93;111288;1258;18946;-70
2022/01/31 00:51:09;;;;;;;;;8.00;8.00;;;;;21.19;50.57;100010.63;111279;1258;19532;-70
2022/01/31 00:53:36;;;;;;;;;9.67;9.33;;;;;21.18;50.71;100006.14;111280;1258;18381;-68
2022/01/31 00:56:03;;;;;;;;;9.00;9.00;;;;;21.18;50.63;100006.42;111195;1258;18843;-69
2022/01/31 00:58:31;;;;;;;;;8.67;8.67;;;;;21.18;50.66;99999.98;111200;1258;19499;-69
2022/01/31 01:00:58;;;;;;;;;9.33;9.00;;;;;21.17;50.68;99995.60;111248;1258;23176;-69
2022/01/31 01:03:25;;;;;;;;;8.33;8.33;;;;;21.18;50.63;100004.42;111160;1258;18805;-68
2022/01/31 01:05:52;;;;;;;;;9.00;9.00;;;;;21.17;50.58;100004.52;111217;1259;19965;-68
2022/01/31 01:08:20;;;;;;;;;9.67;9.00;;;;;21.17;50.50;100008.48;111330;1258;18639;-66
2022/01/31 01:10:47;;;;;;;;;9.00;8.00;;;;;21.17;50.49;100009.06;111261;1258;18655;-68
2022/01/31 01:13:14;;;;;;;;;9.00;8.00;;;;;21.17;50.44;100011.92;111322;1258;20568;-68
2022/01/31 01:15:41;;;;;;;;;9.67;8.00;;;;;21.18;50.65;100012.45;111255;1258;18738;-67
2022/01/31 01:18:08;;;;;;;;;8.33;8.00;;;;;21.15;50.53;100008.91;111246;1258;19768;-67
2022/01/31 01:20:36;;;;;;;;;7.67;6.67;;;;;21.16;50.39;100012.23;111279;1258;19602;-67
2022/01/31 01:23:03;;;;;;;;;10.00;8.00;;;;;21.15;50.65;100002.25;111190;1258;30280;-67
2022/01/31 01:25:32;;;;;;;;;10.67;9.00;;;;;21.15;50.47;99998.64;111204;1258;19133;-70
2022/01/31 01:28:00;;;;;;;;;8.50;8.00;;;;;21.15;50.39;99994.65;111132;1258;19509;-70
2022/01/31 01:30:27;;;;;;;;;9.67;8.00;;;;;21.14;50.63;99986.56;110985;1258;21589;-67
2022/01/31 01:33:04;;;;;;;;;8.00;6.00;;;;;21.14;50.53;99981.79;111276;1258;19313;-68
2022/01/31 01:35:33;;;;;;;;;8.00;6.00;;;;;21.15;50.25;99984.68;111282;1258;20309;-68
2022/01/31 01:38:05;;;;;;;;;9.00;8.67;;;;;21.15;50.46;99979.36;111221;1259;18730;-68
2022/01/31 01:40:33;;;;;;;;;8.00;6.00;;;;;21.14;50.34;99970.59;111231;1258;18870;-67
2022/01/31 01:43:00;;;;;;;;;8.00;6.00;;;;;21.15;50.43;99972.82;111256;1258;19444;-68
2022/01/31 01:45:27;;;;;;;;;8.00;8.00;;;;;21.15;50.30;99969.21;111252;1258;18411;-68
2022/01/31 01:47:54;;;;;;;;;7.33;6.00;;;;;21.15;50.17;99973.73;111268;1258;21625;-68
2022/01/31 01:50:22;;;;;;;;;5.67;5.67;;;;;21.15;50.32;99977.02;111229;1258;19450;-68
2022/01/31 01:52:50;;;;;;;;;8.00;8.00;;;;;21.14;50.14;99976.16;111143;1259;18923;-67
2022/01/31 01:55:17;;;;;;;;;9.00;8.00;;;;;21.14;50.30;99970.17;111008;1260;20090;-67
2022/01/31 01:57:44;;;;;;;;;8.67;8.67;;;;;21.13;50.13;99962.46;111014;1259;19607;-70
2022/01/31 02:00:16;;;;;;;;;6.00;6.00;;;;;21.14;50.43;99957.64;110984;1259;18620;-71
2022/01/31 02:02:43;;;;;;;;;6.67;5.33;;;;;21.14;50.13;99950.80;111160;1258;18836;-70
2022/01/31 02:05:10;;;;;;;;;5.67;5.67;;;;;21.14;50.31;99950.98;111187;1258;108667;-68
2022/01/31 02:07:38;;;;;;;;;6.00;5.00;;;;;21.13;50.37;99952.36;111250;1258;19265;-69
2022/01/31 02:10:06;;;;;;;;;8.00;6.00;;;;;21.13;50.10;99955.63;111148;1258;18972;-69
2022/01/31 02:12:33;;;;;;;;;8.00;6.00;;;;;21.13;50.22;99955.04;111017;1259;21279;-68
2022/01/31 02:15:00;;;;;;;;;5.00;5.00;;;;;21.13;50.14;99954.95;111338;1257;19498;-68
2022/01/31 02:17:28;;;;;;;;;5.00;5.00;;;;;21.13;50.05;99956.92;111321;1258;19385;-69
2022/01/31 02:19:55;;;;;;;;;9.00;6.00;;;;;21.13;50.16;99953.45;111262;1258;19454;-67
2022/01/31 02:22:22;;;;;;;;;6.67;6.00;;;;;21.11;50.11;99952.80;111275;1258;20791;-68
2022/01/31 02:24:49;;;;;;;;;6.00;6.00;;;;;21.12;50.07;99956.84;111265;1258;18764;-68
2022/01/31 02:27:16;;;;;;;;;6.00;6.00;;;;;21.13;50.09;99952.44;111270;1258;20473;-70
2022/01/31 02:29:44;;;;;;;;;10.67;8.00;;;;;21.11;50.12;99949.32;111297;1258;18458;-68
2022/01/31 02:32:12;;;;;;;;;5.33;5.33;;;;;21.11;49.93;99945.88;111275;1258;18936;-69
2022/01/31 02:34:39;;;;;;;;;7.00;6.00;;;;;21.11;49.97;99941.19;111276;1258;21121;-68
2022/01/31 02:37:10;;;;;;;;;8.00;8.00;;;;;21.10;49.84;99943.81;111301;1258;18613;-68
2022/01/31 02:39:37;;;;;;;;;6.00;6.00;;;;;21.11;49.86;99946.69;111275;1258;19324;-68
2022/01/31 02:42:04;;;;;;;;;6.67;6.67;;;;;21.11;49.84;99945.41;111257;1258;19943;-68
2022/01/31 02:44:32;;;;;;;;;9.00;8.00;;;;;21.10;50.08;99945.31;111332;1258;22338;-68
2022/01/31 02:46:59;;;;;;;;;6.00;5.67;;;;;21.10;49.86;99947.08;111240;1258;19340;-70
2022/01/31 02:49:34;;;;;;;;;5.00;5.00;;;;;21.11;49.72;99946.66;111272;1258;19593;-67
2022/01/31 02:52:05;;;;;;;;;6.00;6.00;;;;;21.10;49.72;99948.34;111252;1258;18538;-67
2022/01/31 02:54:32;;;;;;;;;5.00;5.00;;;;;21.10;49.87;99948.34;111291;1258;18899;-68
2022/01/31 02:57:00;;;;;;;;;6.00;6.00;;;;;21.11;49.95;99946.47;111251;1258;19719;-68
2022/01/31 02:59:27;;;;;;;;;5.33;5.33;;;;;21.10;49.95;99948.00;111276;1258;18540;-69
2022/01/31 03:01:54;;;;;;;;;5.50;5.50;;;;;21.10;49.79;99948.38;111267;1258;25195;-68
2022/01/31 03:04:21;;;;;;;;;6.00;5.33;;;;;21.10;49.82;99945.81;111334;1258;20850;-69
2022/01/31 03:06:49;;;;;;;;;5.67;5.67;;;;;21.11;49.67;99945.38;111275;1258;18498;-69
2022/01/31 03:09:16;;;;;;;;;6.00;5.67;;;;;21.10;49.75;99944.77;111271;1259;18900;-68
2022/01/31 03:11:43;;;;;;;;;7.33;6.00;;;;;21.11;49.68;99942.09;111287;1257;19542;-67
2022/01/31 03:14:11;;;;;;;;;5.33;5.33;;;;;21.10;49.84;99937.89;111251;1258;18395;-67
2022/01/31 03:16:40;;;;;;;;;6.00;6.00;;;;;21.10;49.70;99938.61;111209;1257;21590;-67
2022/01/31 03:19:08;;;;;;;;;6.00;6.00;;;;;21.09;49.67;99929.05;111273;1258;19763;-67
2022/01/31 03:21:35;;;;;;;;;6.00;5.33;;;;;21.08;49.75;99923.64;111240;1258;18533;-68
2022/01/31 03:24:03;;;;;;;;;5.00;5.00;;;;;21.09;49.62;99923.60;111092;1259;18788;-68
2022/01/31 03:26:30;;;;;;;;;4.33;4.33;;;;;21.09;49.69;99921.38;111104;1259;20341;-69
2022/01/31 03:28:57;;;;;;;;;5.00;5.00;;;;;21.08;49.86;99918.02;111009;1259;22744;-68
2022/01/31 03:31:24;;;;;;;;;6.00;6.00;;;;;21.09;49.54;99912.70;111012;1258;22054;-68
2022/01/31 03:33:51;;;;;;;;;4.00;4.00;;;;;21.08;49.61;99905.66;111028;1259;19420;-67
2022/01/31 03:36:19;;;;;;;;;4.67;4.67;;;;;21.07;49.43;99900.34;111018;1258;18419;-68
2022/01/31 03:38:46;;;;;;;;;5.00;5.00;;;;;21.07;49.68;99898.02;111119;1258;20722;-68
2022/01/31 03:41:13;;;;;;;;;4.33;4.00;;;;;21.10;49.49;99894.09;111070;1258;22042;-68
2022/01/31 03:43:40;;;;;;;;;5.33;5.33;;;;;21.09;49.68;99892.20;111055;1258;19306;-70
2022/01/31 03:46:08;;;;;;;;;5.00;4.50;;;;;21.08;49.58;99890.11;111019;1258;18653;-70
2022/01/31 03:48:35;;;;;;;;;4.00;4.00;;;;;21.07;49.59;99885.62;111007;1259;22341;-70
2022/01/31 03:51:03;;;;;;;;;5.00;5.00;;;;;21.09;49.44;99878.92;111020;1259;22056;-70
2022/01/31 03:53:30;;;;;;;;;5.00;5.00;;;;;21.08;49.56;99870.08;111144;1258;18883;-70
2022/01/31 03:55:57;;;;;;;;;5.67;5.00;;;;;21.08;49.61;99867.77;111041;1258;20079;-70
2022/01/31 03:58:24;;;;;;;;;6.00;5.00;;;;;21.08;49.61;99868.65;111125;1258;20309;-68
2022/01/31 04:00:51;;;;;;;;;6.00;6.00;;;;;21.07;49.47;99865.46;111147;1258;18719;-70
2022/01/31 04:03:19;;;;;;;;;4.00;4.00;;;;;21.08;49.53;99863.45;111141;1258;19600;-71
2022/01/31 04:05:46;;;;;;;;;5.00;5.00;;;;;21.08;49.49;99862.11;111054;1258;22234;-69
2022/01/31 04:08:13;;;;;;;;;5.33;5.00;;;;;21.07;49.48;99862.23;111034;1258;18949;-68
2022/01/31 04:10:40;;;;;;;;;5.00;4.00;;;;;21.07;49.52;99866.98;111042;1259;19570;-71
2022/01/31 04:13:08;;;;;;;;;4.33;4.33;;;;;21.07;49.52;99861.69;111071;1259;23996;-70
2022/01/31 04:15:35;;;;;;;;;4.67;4.00;;;;;21.07;49.40;99863.52;111037;1258;18696;-70
2022/01/31 04:18:02;;;;;;;;;4.33;4.33;;;;;21.08;49.35;99855.86;111019;1258;20221;-69
2022/01/31 04:20:29;;;;;;;;;4.00;4.00;;;;;21.07;49.26;99854.77;111100;1259;20032;-70
2022/01/31 04:23:00;;;;;;;;;6.00;5.50;;;;;21.08;49.35;99852.72;111110;1258;18935;-70
2022/01/31 04:25:42;;;;;;;;;5.00;5.00;;;;;21.07;49.45;99848.82;111101;1259;20885;-69
2022/01/31 04:28:17;;;;;;;;;4.00;4.00;;;;;21.07;49.57;99844.67;111021;1259;18393;-69
2022/01/31 04:30:50;;;;;;;;;5.00;5.00;;;;;21.06;49.33;99840.98;111009;1259;23104;-70
2022/01/31 04:33:18;;;;;;;;;5.00;4.00;;;;;21.06;49.29;99834.06;110971;1259;23295;-70
2022/01/31 04:35:45;;;;;;;;;4.67;4.67;;;;;21.05;49.27;99831.16;111054;1260;18416;-70
2022/01/31 04:38:12;;;;;;;;;6.00;5.33;;;;;21.06;49.32;99827.19;111079;1258;18688;-69
2022/01/31 04:40:39;;;;;;;;;4.00;2.00;;;;;21.06;49.23;99824.92;111093;1258;20176;-70
2022/01/31 04:43:07;;;;;;;;;5.67;5.00;;;;;21.07;49.49;99820.19;111025;1258;22923;-71
2022/01/31 04:45:34;;;;;;;;;4.00;4.00;;;;;21.05;49.23;99815.08;111037;1259;21820;-69
2022/01/31 04:48:01;;;;;;;;;6.00;5.00;;;;;21.05;49.39;99807.90;111031;1259;21426;-69
2022/01/31 04:50:28;;;;;;;;;3.33;2.67;;;;;21.04;49.54;99809.90;111065;1260;22250;-70
2022/01/31 04:52:56;;;;;;;;;5.00;4.33;;;;;21.04;49.19;99809.73;111205;1258;19145;-70
2022/01/31 04:55:23;;;;;;;;;6.00;5.00;;;;;21.04;49.13;99805.08;110971;1259;19976;-70
2022/01/31 04:57:50;;;;;;;;;5.50;4.00;;;;;21.04;49.32;99806.00;111070;1259;20862;-70
2022/01/31 05:00:18;;;;;;;;;5.00;5.00;;;;;21.05;49.28;99807.98;111035;1259;20703;-69
2022/01/31 05:02:45;;;;;;;;;9.00;6.00;;;;;21.04;49.26;99807.22;111273;1258;20313;-70
2022/01/31 05:05:12;;;;;;;;;4.33;4.00;;;;;21.04;49.46;99808.30;111212;1258;18440;-70
2022/01/31 05:07:39;;;;;;;;;5.50;5.00;;;;;21.05;49.25;99809.08;110999;1259;19941;-70
2022/01/31 05:10:06;;;;;;;;;4.67;4.67;;;;;21.06;49.24;99806.48;111163;1258;22922;-69
2022/01/31 05:12:34;;;;;;;;;4.33;4.33;;;;;21.04;49.15;99807.22;111003;1259;18446;-69
2022/01/31 05:15:01;;;;;;;;;6.00;5.50;;;;;21.04;49.13;99809.73;110965;1259;18620;-68
2022/01/31 05:17:28;;;;;;;;;5.00;5.00;;;;;21.05;49.04;99815.90;111209;1258;19643;-68
2022/01/31 05:19:56;;;;;;;;;5.00;5.00;;;;;21.04;49.13;99812.71;110846;1259;21652;-68
2022/01/31 05:22:23;;;;;;;;;5.67;5.00;;;;;21.05;49.13;99811.91;111137;1258;18869;-69
2022/01/31 05:24:50;;;;;;;;;5.00;4.00;;;;;21.04;49.33;99809.56;111022;1260;20001;-65
2022/01/31 05:27:17;;;;;;;;;5.00;4.67;;;;;21.03;49.13;99813.33;111042;1259;22841;-68
2022/01/31 05:29:45;;;;;;;;;3.33;3.33;;;;;21.04;49.15;99813.24;111214;1258;22139;-68
2022/01/31 05:32:12;;;;;;;;;5.00;4.00;;;;;21.04;49.08;99810.02;111158;1258;19555;-69
2022/01/31 05:34:39;;;;;;;;;5.33;4.33;;;;;21.04;49.15;99810.73;111085;1258;19191;-70
2022/01/31 05:37:06;;;;;;;;;5.00;5.00;;;;;21.05;49.08;99807.73;111020;1260;18669;-68
2022/01/31 05:39:34;;;;;;;;;2.67;2.67;;;;;21.03;48.95;99810.06;110994;1259;19774;-67
2022/01/31 05:42:01;;;;;;;;;5.00;5.00;;;;;21.02;49.11;99804.57;110964;1259;25558;-67
2022/01/31 05:44:28;;;;;;;;;4.67;4.67;;;;;21.03;49.09;99800.71;111155;1258;18704;-68
2022/01/31 05:46:57;;;;;;;;;5.00;5.00;;;;;21.03;49.04;99801.77;111086;1258;20154;-67
2022/01/31 05:49:24;;;;;;;;;5.00;5.00;;;;;21.03;49.08;99797.91;111116;1258;20150;-67
2022/01/31 05:51:51;;;;;;;;;4.00;4.00;;;;;21.03;49.01;99797.73;110961;1259;21136;-68
2022/01/31 05:54:19;;;;;;;;;4.00;4.00;;;;;21.04;49.08;99803.99;111130;1258;20600;-70
2022/01/31 05:56:46;;;;;;;;;5.00;4.50;;;;;21.03;48.98;99801.76;111104;1258;22857;-68
2022/01/31 05:59:13;;;;;;;;;5.00;5.00;;;;;21.03;49.13;99798.91;111134;1258;18725;-68
2022/01/31 06:01:40;;;;;;;;;5.00;5.00;;;;;21.02;49.10;99799.27;111109;1258;19502;-68
2022/01/31 06:04:07;;;;;;;;;5.00;5.00;;;;;21.03;49.11;99796.98;110992;1261;20795;-68
2022/01/31 06:06:35;;;;;;;;;5.67;5.33;;;;;21.04;49.02;99790.07;111032;1258;18675;-68
2022/01/31 06:09:02;;;;;;;;;6.00;5.00;;;;;21.03;49.10;99792.54;111070;1258;19674;-68
2022/01/31 06:11:31;;;;;;;;;5.00;5.00;;;;;21.02;49.17;99794.93;111110;1258;18863;-68
2022/01/31 06:14:00;;;;;;;;;5.50;5.00;;;;;21.03;48.92;99792.16;111015;1259;22451;-68
2022/01/31 06:16:27;;;;;;;;;5.00;4.67;;;;;21.03;49.08;99790.66;110974;1259;21597;-69
2022/01/31 06:18:54;;;;;;;;;6.00;5.00;;;;;21.00;48.74;99782.46;111085;1259;21310;-69
2022/01/31 06:21:22;;;;;;;;;5.00;4.33;;;;;21.07;48.85;99792.48;110995;1259;18739;-68
2022/01/31 06:23:49;;;;;;;;;4.67;4.67;;;;;21.12;49.12;99792.59;111024;1262;20104;-68
2022/01/31 06:26:16;;;;;;;;;4.33;4.00;;;;;21.14;49.12;99787.06;111074;1258;18681;-68
2022/01/31 06:28:43;;;;;;;;;4.50;4.50;;;;;21.15;49.29;99790.38;110958;1261;18971;-69
2022/01/31 06:31:11;;;;;;;;;5.00;4.00;;;;;21.14;49.42;99785.18;110992;1259;19522;-70
2022/01/31 06:33:38;;;;;;;;;4.33;4.33;;;;;21.14;49.49;99780.65;111113;1258;18872;-70
2022/01/31 06:36:05;;;;;;;;;8.00;8.00;;;;;21.18;49.70;99781.17;110961;1259;19213;-68
2022/01/31 06:38:35;;;;;;;;;6.00;5.00;;;;;21.16;49.71;99777.17;111090;1259;19622;-68
2022/01/31 06:41:02;;;;;;;;;5.67;5.00;;;;;21.15;49.91;99778.09;110961;1261;22029;-68
2022/01/31 06:43:30;;;;;;;;;6.00;5.00;;;;;21.14;49.67;99779.52;110965;1260;18863;-68
2022/01/31 06:45:57;;;;;;;;;5.00;5.00;;;;;21.13;49.88;99775.79;111002;1261;19598;-69
2022/01/31 06:48:24;;;;;;;;;5.00;5.00;;;;;21.15;49.66;99775.37;111030;1261;19796;-68
2022/01/31 06:50:51;;;;;;;;;4.00;4.00;;;;;21.17;50.01;99777.27;111164;1258;22968;-69
2022/01/31 06:53:25;;;;;;;;;5.33;5.00;;;;;21.21;50.07;99771.38;111007;1259;19611;-68
2022/01/31 06:55:53;;;;;;;;;7.33;6.67;;;;;21.25;50.17;99763.89;111010;1261;18398;-68
2022/01/31 06:58:20;;;;;;;;;5.00;5.00;;;;;21.25;50.32;99752.02;111171;1258;19357;-68
2022/01/31 07:00:48;;;;;;;;;5.00;4.00;;;;;21.28;50.13;99747.23;111204;1258;20132;-70
2022/01/31 07:03:15;;;;;;;;;6.00;5.33;;;;;21.29;50.49;99744.64;111061;1259;18460;-71
2022/01/31 07:05:42;;;;;;;;;5.00;5.00;;;;;21.30;50.44;99746.07;111109;1259;18680;-69
2022/01/31 07:08:09;;;;;;;;;5.00;5.00;;;;;21.31;50.80;99742.39;110968;1260;19636;-68
2022/01/31 07:10:37;;;;;;;;;5.00;5.00;;;;;21.29;50.68;99741.43;111105;1258;18635;-69
2022/01/31 07:13:12;;;;;;;;;8.00;6.00;;;;;21.29;50.64;99743.20;111025;1261;19327;-68
2022/01/31 07:15:39;;;;;;;;;5.00;5.00;;;;;21.32;50.57;99740.54;111245;1258;20010;-70
2022/01/31 07:18:06;;;;;;;;;5.67;5.67;;;;;21.38;50.68;99739.80;111082;1259;18474;-68
2022/01/31 07:20:38;;;;;;;;;9.00;9.00;;;;;21.41;50.95;99734.88;111304;1258;19573;-69
2022/01/31 07:23:11;;;;;;;;;17.67;15.67;;;;;21.39;51.09;99727.32;111169;1258;19795;-68
2022/01/31 07:25:38;;;;;;;;;28.33;24.33;;;;;21.35;51.12;99728.17;111012;1259;18626;-67
2022/01/31 07:28:05;;;;;;;;;41.67;34.67;;;;;21.34;50.96;99734.42;111022;1257;21852;-69
2022/01/31 07:30:32;;;;;;;;;33.33;29.33;;;;;21.33;50.84;99733.09;111082;1258;19810;-70
2022/01/31 07:32:59;;;;;;;;;39.50;33.00;;;;;21.31;50.61;99736.27;110957;1259;22022;-71
2022/01/31 07:35:27;;;;;;;;;39.67;34.67;;;;;21.29;50.72;99729.52;111044;1258;22925;-69
2022/01/31 07:37:54;;;;;;;;;36.67;32.67;;;;;21.26;50.72;99732.78;111171;1258;20280;-69
2022/01/31 07:40:21;;;;;;;;;37.67;34.67;;;;;21.26;50.53;99733.27;111181;1258;28818;-69
2022/01/31 07:42:48;;;;;;;;;34.33;33.00;;;;;21.28;50.53;99730.79;110862;1259;19319;-72
2022/01/31 07:45:16;;;;;;;;;38.67;35.00;;;;;21.29;50.44;99729.63;111009;1259;19649;-71
2022/01/31 07:47:43;;;;;;;;;39.50;34.50;;;;;21.31;50.32;99729.39;111073;1261;21500;-71
2022/01/31 07:50:11;;;;;;;;;38.67;35.67;;;;;21.27;50.35;99724.10;110958;1261;18991;-70
2022/01/31 07:52:39;;;;;;;;;42.33;35.33;;;;;21.25;50.30;99720.23;111071;1259;22159;-70
2022/01/31 07:55:06;;;;;;;;;34.50;32.00;;;;;21.26;50.18;99719.04;111162;1258;18604;-71
2022/01/31 07:57:34;;;;;;;;;35.67;33.00;;;;;21.27;50.27;99714.37;111262;1258;20954;-70
2022/01/31 08:00:02;;;;;;;;;33.50;32.00;;;;;21.29;50.25;99715.68;111024;1259;19607;-68
2022/01/31 08:02:29;;;;;;;;;38.00;34.00;;;;;21.30;50.06;99714.98;110977;1260;23450;-71
2022/01/31 08:04:56;;;;;;;;;34.33;33.33;;;;;21.35;50.07;99711.52;111163;1259;19823;-69
2022/01/31 08:07:23;;;;;;;;;39.50;36.50;;;;;21.37;50.11;99706.52;111172;1259;22016;-69
2022/01/31 08:09:51;;;;;;;;;40.00;35.67;;;;;21.42;50.02;99705.39;111321;1258;22402;-74
2022/01/31 08:12:18;;;;;;;;;42.00;35.67;;;;;21.44;49.82;99706.02;111339;1258;18926;-71
2022/01/31 08:14:47;;;;;;;;;41.67;36.33;;;;;21.45;49.73;99709.20;111306;1258;20140;-72
2022/01/31 08:17:14;;;;;;;;;34.33;31.33;;;;;21.51;50.00;99703.86;111331;1258;18739;-73
2022/01/31 08:19:42;;;;;;;;;38.00;31.50;;;;;21.47;49.26;99703.06;111362;1258;19816;-72
2022/01/31 08:22:09;;;;;;;;;37.00;33.00;;;;;21.47;47.64;99701.84;111195;1258;22303;-70
2022/01/31 08:24:36;;;;;;;;;34.33;30.67;;;;;21.49;47.19;99700.20;111332;1258;19448;-73
2022/01/31 08:27:03;;;;;;;;;34.67;31.00;;;;;21.46;47.31;99696.17;111273;1258;18858;-71
2022/01/31 08:29:34;;;;;;;;;35.33;29.67;;;;;21.55;47.56;99695.65;111288;1258;20175;-69
2022/01/31 08:32:06;;;;;;;;;39.33;30.67;;;;;21.69;47.68;99692.31;111338;1259;18706;-71
2022/01/31 08:37:18;;;;;;;;;30.00;29.50;;;;;21.74;48.01;99689.96;111309;1258;19662;-72
2022/01/31 08:39:46;;;;;;;;;34.00;31.00;;;;;21.73;48.72;99685.90;111294;1258;18635;-70
2022/01/31 08:42:13;;;;;;;;;36.00;29.00;;;;;21.71;49.46;99679.66;111286;1258;19150;-71
2022/01/31 08:44:40;;;;;;;;;31.00;27.33;;;;;21.76;49.53;99677.67;111321;1258;19771;-71
2022/01/31 08:47:07;;;;;;;;;34.00;30.00;;;;;21.76;49.72;99684.31;111328;1258;18733;-70
2022/01/31 08:49:36;;;;;;;;;31.33;27.67;;;;;21.71;49.95;99680.23;111282;1258;18881;-71
2022/01/31 08:52:03;;;;;;;;;28.00;26.00;;;;;21.70;50.25;99676.03;111267;1258;20144;-69
2022/01/31 08:54:31;;;;;;;;;33.67;30.00;;;;;21.65;50.29;99668.94;111246;1258;18672;-69
2022/01/31 08:56:58;;;;;;;;;30.67;27.33;;;;;21.61;50.63;99669.40;111297;1259;18681;-70
2022/01/31 08:59:26;;;;;;;;;34.00;32.50;;;;;21.63;50.60;99668.38;111293;1258;19718;-69
2022/01/31 09:02:03;;;;;;;;;34.00;30.50;;;;;21.63;50.46;99664.19;111309;1258;21289;-69
2022/01/31 09:04:41;;;;;;;;;29.00;25.67;;;;;21.62;50.45;99665.07;111290;1258;19041;-69
2022/01/31 09:07:08;;;;;;;;;31.33;29.67;;;;;21.64;50.31;99658.88;111212;1258;19833;-70
2022/01/31 09:09:36;;;;;;;;;32.67;29.67;;;;;21.66;50.34;99655.27;111242;1258;18829;-70
2022/01/31 09:12:05;;;;;;;;;29.50;27.00;;;;;21.65;50.16;99657.58;111253;1258;18823;-69
2022/01/31 09:14:33;;;;;;;;;29.67;28.33;;;;;21.68;50.47;99657.02;111330;1258;19449;-69
2022/01/31 09:17:00;;;;;;;;;31.67;30.00;;;;;21.69;50.13;99653.75;111089;1258;19388;-69
2022/01/31 09:19:27;;;;;;;;;33.67;30.00;;;;;21.67;50.19;99654.85;111306;1258;18980;-70
2022/01/31 09:21:54;;;;;;;;;31.67;28.33;;;;;21.66;50.14;99654.48;111322;1258;27355;-70
2022/01/31 09:24:22;;;;;;;;;37.00;30.67;;;;;21.64;50.28;99656.45;111341;1258;21769;-69
2022/01/31 09:26:49;;;;;;;;;29.33;26.00;;;;;21.61;50.41;99650.52;111324;1258;19733;-69
2022/01/31 09:29:17;;;;;;;;;30.00;27.00;;;;;21.64;50.52;99653.79;111298;1258;20372;-70
2022/01/31 09:31:45;;;;;;;;;24.33;23.67;;;;;21.61;50.61;99655.59;111328;1258;22825;-69
2022/01/31 09:34:12;;;;;;;;;27.67;26.00;;;;;21.61;50.51;99655.05;111253;1258;19413;-69
2022/01/31 09:36:39;;;;;;;;;29.33;26.33;;;;;21.59;50.50;99650.52;111294;1258;19485;-70
2022/01/31 09:39:07;;;;;;;;;31.33;28.33;;;;;21.57;50.45;99651.02;111352;1258;22204;-69
2022/01/31 09:41:36;;;;;;;;;25.67;25.33;;;;;21.56;50.71;99648.84;111378;1258;19517;-69
2022/01/31 09:44:14;;;;;;;;;26.00;25.67;;;;;21.57;50.55;99647.96;111276;1258;20289;-71
2022/01/31 09:46:48;;;;;;;;;32.33;30.00;;;;;21.56;50.42;99648.04;111321;1258;19295;-69
2022/01/31 09:49:15;;;;;;;;;36.33;33.00;;;;;21.53;50.68;99641.01;111340;1258;29615;-69
2022/01/31 09:51:43;;;;;;;;;45.00;34.67;;;;;21.54;50.66;99642.17;111331;1258;20143;-69
2022/01/31 09:54:10;;;;;;;;;42.33;36.00;;;;;21.53;50.46;99643.06;111328;1258;18690;-68
2022/01/31 09:56:37;;;;;;;;;37.67;33.67;;;;;21.52;50.65;99647.54;111326;1258;19010;-69
2022/01/31 09:59:05;;;;;;;;;48.00;41.67;;;;;21.51;50.76;99645.42;111209;1258;19491;-69
2022/01/31 10:01:32;;;;;;;;;44.33;39.33;;;;;21.57;50.92;99647.25;111228;1258;22917;-69
2022/01/31 10:03:59;;;;;;;;;54.67;42.67;;;;;21.62;50.81;99647.62;111253;1258;18898;-68
2022/01/31 10:06:26;;;;;;;;;50.00;39.00;;;;;21.64;50.60;99646.86;111295;1258;19803;-68
2022/01/31 10:08:54;;;;;;;;;50.67;40.00;;;;;21.61;50.43;99640.33;111357;1258;19696;-69
2022/01/31 10:11:27;;;;;;;;;51.00;41.67;;;;;21.60;50.63;99640.04;111315;1258;18838;-68
2022/01/31 10:16:39;;;;;;;;;59.50;42.00;;;;;21.50;50.85;99640.07;111321;1258;18690;-68
2022/01/31 10:19:06;;;;;;;;;49.00;41.00;;;;;21.49;50.75;99635.09;111279;1258;19053;-70
2022/01/31 10:21:34;;;;;;;;;41.67;39.00;;;;;21.48;50.69;99632.23;111261;1259;22000;-69
2022/01/31 10:24:01;;;;;;;;;51.00;39.67;;;;;21.47;51.01;99628.02;111327;1259;19197;-69
2022/01/31 10:26:31;;;;;;;;;53.00;38.00;;;;;21.48;50.93;99627.23;111289;1259;21858;-69
2022/01/31 10:28:58;;;;;;;;;49.00;39.00;;;;;21.51;50.99;99617.83;111279;1258;19626;-66
2022/01/31 10:31:26;;;;;;;;;47.33;37.33;;;;;21.53;51.05;99620.16;111308;1258;19477;-71
2022/01/31 10:33:53;;;;;;;;;38.33;36.33;;;;;21.55;50.89;99619.52;111213;1258;20918;-68
2022/01/31 10:36:20;;;;;;;;;39.00;36.00;;;;;21.54;50.86;99620.61;111128;1258;19561;-69
2022/01/31 10:38:50;;;;;;;;;38.33;34.67;;;;;21.52;50.94;99615.20;111218;1258;18870;-69
2022/01/31 10:44:39;;;;;;;;;33.50;30.50;;;;;21.52;51.02;99622.13;111188;1258;19538;-72
2022/01/31 10:52:32;;;;;;;;;34.67;32.00;;;;;21.57;50.52;99618.34;111224;1258;20126;-73
2022/01/31 10:54:59;;;;;;;;;39.67;32.67;;;;;21.59;50.61;99613.27;111237;1258;22062;-73
2022/01/31 10:57:27;;;;;;;;;36.33;32.67;;;;;21.60;50.74;99615.71;111243;1258;22682;-71
2022/01/31 10:59:55;;;;;;;;;37.00;31.00;;;;;21.61;50.57;99617.09;111258;1258;22022;-70
2022/01/31 11:02:22;;;;;;;;;34.50;29.50;;;;;21.59;50.84;99616.72;111214;1258;18958;-69
2022/01/31 11:04:49;;;;;;;;;37.00;28.00;;;;;21.58;50.74;99616.00;111244;1258;18842;-73
2022/01/31 11:07:17;;;;;;;;;31.00;27.33;;;;;21.59;50.60;99618.05;111230;1258;20014;-68
2022/01/31 11:09:45;;;;;;;;;28.67;25.33;;;;;21.56;50.46;99612.55;111271;1258;18697;-69
2022/01/31 11:12:12;;;;;;;;;38.33;28.67;;;;;21.57;50.28;99608.77;111281;1258;19477;-71
2022/01/31 11:14:39;;;;;;;;;33.00;26.00;;;;;21.54;50.26;99605.05;111124;1258;20394;-66
2022/01/31 11:17:08;;;;;;;;;33.00;30.00;;;;;21.54;50.21;99607.65;111273;1258;19422;-68
2022/01/31 11:19:35;;;;;;;;;28.67;26.00;;;;;21.53;50.35;99609.39;111276;1258;23106;-69
2022/01/31 11:22:03;;;;;;;;;27.33;25.67;;;;;21.49;50.34;99608.20;111279;1258;20119;-68
2022/01/31 11:24:32;;;;;;;;;32.67;27.00;;;;;21.47;50.61;99602.78;111320;1258;18870;-69
2022/01/31 11:26:59;;;;;;;;;27.67;26.33;;;;;21.46;50.43;99599.34;111320;1259;18870;-68
2022/01/31 11:29:26;;;;;;;;;30.33;27.67;;;;;21.45;50.35;99597.53;111271;1258;20051;-68
2022/01/31 11:31:54;;;;;;;;;34.00;27.00;;;;;21.41;50.04;99592.21;111320;1258;24711;-68
2022/01/31 11:34:21;;;;;;;;;30.00;26.00;;;;;21.40;49.54;99591.00;111257;1258;23360;-67